Time,TemperatureF,DewpointF,PressureIn,WindDirection,WindDirectionDegrees,WindSpeedMPH,WindSpeedGustMPH,Humidity,HourlyPrecipIn,Conditions,Clouds,dailyrainin,SolarRadiationWatts/m^2,SoftwareType,DateUTC
2013-08-26 00:21:00,51.0,50.0,-100.00,ESE,117,1.0,4.0,96,0.00,,,0.02,0.000000,,2013-08-26 07:21:00,
2013-08-26 00:32:00,51.0,50.0,-100.00,ESE,117,1.0,4.0,96,0.00,,,0.02,0.000000,,2013-08-26 07:32:00,
2013-08-26 00:42:00,51.0,50.0,-100.00,ESE,117,1.0,4.0,96,0.00,,,0.02,0.000000,,2013-08-26 07:42:00,
2013-08-26 00:52:00,51.0,50.0,-100.00,ESE,117,1.0,4.0,96,0.00,,,0.02,0.000000,,2013-08-26 07:52:00,
2013-08-26 01:22:00,51.0,50.0,-100.00,ENE,60,1.0,2.0,97,0.00,,,0.02,0.000000,,2013-08-26 08:22:00,
2013-08-26 01:32:00,51.0,50.0,-100.00,ENE,60,1.0,2.0,97,0.00,,,0.02,0.000000,,2013-08-26 08:32:00,
2013-08-26 01:42:00,51.0,50.0,-100.00,ENE,60,1.0,2.0,97,0.00,,,0.02,0.000000,,2013-08-26 08:42:00,
2013-08-26 01:52:00,51.0,50.0,-100.00,ENE,60,1.0,2.0,97,0.00,,,0.02,0.000000,,2013-08-26 08:52:00,
2013-08-26 01:53:00,49.0,48.0,-100.00,East,88,1.0,3.0,97,0.00,,,0.02,0.000000,,2013-08-26 08:53:00,
2013-08-26 02:21:00,49.0,48.0,-100.00,East,88,1.0,3.0,97,0.00,,,0.02,0.000000,,2013-08-26 09:21:00,
2013-08-26 02:33:00,49.0,48.0,-100.00,East,88,1.0,3.0,97,0.00,,,0.02,0.000000,,2013-08-26 09:33:00,
2013-08-26 02:43:00,49.0,48.0,-100.00,East,88,1.0,3.0,97,0.00,,,0.02,0.000000,,2013-08-26 09:43:00,
2013-08-26 03:23:00,50.0,49.0,-100.00,ESE,105,1.0,2.0,97,0.00,,,0.02,0.000000,,2013-08-26 10:23:00,
2013-08-26 03:32:00,50.0,49.0,-100.00,ESE,105,1.0,2.0,97,0.00,,,0.02,0.000000,,2013-08-26 10:32:00,
2013-08-26 03:42:00,50.0,49.0,-100.00,ESE,105,1.0,2.0,97,0.00,,,0.02,0.000000,,2013-08-26 10:42:00,
2013-08-26 03:52:00,50.0,49.0,-100.00,ESE,105,1.0,2.0,97,0.00,,,0.02,0.000000,,2013-08-26 10:52:00,
2013-08-26 04:22:00,49.0,48.0,-100.00,ESE,118,1.0,3.0,97,0.00,,,0.02,0.000000,,2013-08-26 11:22:00,
2013-08-26 04:33:00,49.0,48.0,-100.00,ESE,118,1.0,3.0,97,0.00,,,0.02,0.000000,,2013-08-26 11:33:00,
2013-08-26 04:42:00,49.0,48.0,-100.00,ESE,118,1.0,3.0,97,0.00,,,0.02,0.000000,,2013-08-26 11:42:00,
2013-08-26 04:52:00,49.0,48.0,-100.00,ESE,118,1.0,3.0,97,0.00,,,0.02,0.000000,,2013-08-26 11:52:00,
2013-08-26 05:21:00,50.0,49.0,-100.00,ENE,74,1.0,3.0,97,0.00,,,-99.99,0.000000,,2013-08-26 12:21:00,
2013-08-26 05:32:00,50.0,49.0,-100.00,ENE,74,1.0,3.0,97,0.00,,,-99.99,0.000000,,2013-08-26 12:32:00,
2013-08-26 05:42:00,50.0,49.0,-100.00,ENE,74,1.0,3.0,97,0.00,,,-99.99,0.000000,,2013-08-26 12:42:00,
2013-08-26 05:52:00,50.0,49.0,-100.00,ENE,74,1.0,3.0,97,0.00,,,-99.99,0.000000,,2013-08-26 12:52:00,
2013-08-26 06:21:00,48.0,47.0,-100.00,ESE,117,1.0,5.0,97,0.00,,,0.02,0.000000,,2013-08-26 13:21:00,
2013-08-26 06:32:00,48.0,47.0,-100.00,ESE,117,1.0,5.0,97,0.00,,,0.02,0.000000,,2013-08-26 13:32:00,
2013-08-26 06:42:00,48.0,47.0,-100.00,ESE,117,1.0,5.0,97,0.00,,,0.02,0.000000,,2013-08-26 13:42:00,
2013-08-26 06:52:00,48.0,47.0,-100.00,ESE,117,1.0,5.0,97,0.00,,,0.02,0.000000,,2013-08-26 13:52:00,
2013-08-26 07:22:00,49.0,48.0,-100.00,ESE,114,1.0,3.0,97,0.00,,,0.02,6.000000,,2013-08-26 14:22:00,
2013-08-26 07:32:00,49.0,48.0,-100.00,ESE,114,1.0,3.0,97,0.00,,,0.02,6.000000,,2013-08-26 14:32:00,
2013-08-26 07:42:00,49.0,48.0,-100.00,ESE,114,1.0,3.0,97,0.00,,,0.02,6.000000,,2013-08-26 14:42:00,
2013-08-26 07:52:00,49.0,48.0,-100.00,ESE,114,1.0,3.0,97,0.00,,,0.02,6.000000,,2013-08-26 14:52:00,
2013-08-26 07:53:00,51.0,50.0,-100.00,East,96,1.0,5.0,97,0.00,,,0.02,45.000000,,2013-08-26 14:53:00,
2013-08-26 08:22:00,51.0,50.0,-100.00,East,96,1.0,5.0,97,0.00,,,0.02,45.000000,,2013-08-26 15:22:00,
2013-08-26 08:35:00,51.0,50.0,-100.00,East,96,1.0,5.0,97,0.00,,,0.02,45.000000,,2013-08-26 15:35:00,
2013-08-26 08:47:00,51.0,50.0,-100.00,East,96,1.0,5.0,97,0.00,,,0.02,45.000000,,2013-08-26 15:47:00,
2013-08-26 08:53:00,55.0,52.0,-100.00,SSW,205,1.0,7.0,90,0.00,,,0.02,147.000000,,2013-08-26 15:53:00,
2013-08-26 09:29:00,55.0,52.0,-100.00,SSW,205,1.0,7.0,90,0.00,,,0.02,147.000000,,2013-08-26 16:29:00,
2013-08-26 09:36:00,55.0,52.0,-100.00,SSW,205,1.0,7.0,90,0.00,,,0.02,147.000000,,2013-08-26 16:36:00,
2013-08-26 09:48:00,55.0,52.0,-100.00,SSW,205,1.0,7.0,90,0.00,,,0.02,147.000000,,2013-08-26 16:48:00,
2013-08-26 09:53:00,56.0,50.0,-100.00,SSE,162,1.0,4.0,81,0.00,,,0.02,187.000000,,2013-08-26 16:53:00,
2013-08-26 10:24:00,56.0,50.0,-100.00,SSE,162,1.0,4.0,81,0.00,,,0.02,187.000000,,2013-08-26 17:24:00,
2013-08-26 10:36:00,56.0,50.0,-100.00,SSE,162,1.0,4.0,81,0.00,,,0.02,187.000000,,2013-08-26 17:36:00,
2013-08-26 10:43:00,56.0,50.0,-100.00,SSE,162,1.0,4.0,81,0.00,,,0.02,187.000000,,2013-08-26 17:43:00,
2013-08-26 11:21:00,61.0,48.0,-100.00,NNW,335,1.0,5.0,62,0.00,,,0.02,319.000000,,2013-08-26 18:21:00,
2013-08-26 11:31:00,61.0,48.0,-100.00,NNW,335,1.0,5.0,62,0.00,,,0.02,319.000000,,2013-08-26 18:31:00,
2013-08-26 11:42:00,61.0,48.0,-100.00,NNW,335,1.0,5.0,62,0.00,,,0.02,319.000000,,2013-08-26 18:42:00,
2013-08-26 11:52:00,61.0,48.0,-100.00,NNW,335,1.0,5.0,62,0.00,,,0.02,319.000000,,2013-08-26 18:52:00,
2013-08-26 12:22:00,63.0,49.0,-100.00,NW,310,2.0,7.0,60,0.00,,,0.02,405.000000,,2013-08-26 19:22:00,
2013-08-26 12:32:00,63.0,49.0,-100.00,NW,310,2.0,7.0,60,0.00,,,0.02,405.000000,,2013-08-26 19:32:00,
2013-08-26 12:42:00,63.0,49.0,-100.00,NW,310,2.0,7.0,60,0.00,,,0.02,405.000000,,2013-08-26 19:42:00,
2013-08-26 12:52:00,63.0,49.0,-100.00,NW,310,2.0,7.0,60,0.00,,,0.02,405.000000,,2013-08-26 19:52:00,
2013-08-26 13:21:00,64.0,47.0,-100.00,SSE,166,2.0,5.0,55,0.00,,,0.02,318.000000,,2013-08-26 20:21:00,
2013-08-26 13:32:00,64.0,47.0,-100.00,SSE,166,2.0,5.0,55,0.00,,,0.02,318.000000,,2013-08-26 20:32:00,
2013-08-26 13:42:00,64.0,47.0,-100.00,SSE,166,2.0,5.0,55,0.00,,,0.02,318.000000,,2013-08-26 20:42:00,
2013-08-26 13:52:00,64.0,47.0,-100.00,SSE,166,2.0,5.0,55,0.00,,,0.02,318.000000,,2013-08-26 20:52:00,
2013-08-26 13:53:00,63.0,50.0,-100.00,West,262,2.0,7.0,62,0.00,,,0.02,315.000000,,2013-08-26 20:53:00,
2013-08-26 14:22:00,63.0,50.0,-100.00,West,262,2.0,7.0,62,0.00,,,0.02,315.000000,,2013-08-26 21:22:00,
2013-08-26 14:35:00,63.0,50.0,-100.00,West,262,2.0,7.0,62,0.00,,,0.02,315.000000,,2013-08-26 21:35:00,
2013-08-26 14:44:00,63.0,50.0,-100.00,West,262,2.0,7.0,62,0.00,,,0.02,315.000000,,2013-08-26 21:44:00,
2013-08-26 14:53:00,63.0,49.0,-100.00,WNW,301,2.0,9.0,60,0.01,,,0.03,313.000000,,2013-08-26 21:53:00,
2013-08-26 15:26:00,63.0,49.0,-100.00,WNW,301,2.0,9.0,60,0.01,,,0.03,313.000000,,2013-08-26 22:26:00,
2013-08-26 15:34:00,63.0,49.0,-100.00,WNW,301,2.0,9.0,60,0.01,,,0.03,313.000000,,2013-08-26 22:34:00,
2013-08-26 15:42:00,63.0,49.0,-100.00,WNW,301,2.0,9.0,60,0.01,,,0.03,313.000000,,2013-08-26 22:42:00,
2013-08-26 16:22:00,61.0,47.0,-100.00,West,260,2.0,10.0,60,0.00,,,0.03,189.000000,,2013-08-26 23:22:00,
2013-08-26 16:34:00,61.0,47.0,-100.00,West,260,2.0,10.0,60,0.00,,,0.03,189.000000,,2013-08-26 23:34:00,
2013-08-26 16:42:00,61.0,47.0,-100.00,West,260,2.0,10.0,60,0.00,,,0.03,189.000000,,2013-08-26 23:42:00,
2013-08-26 16:52:00,61.0,47.0,-100.00,West,260,2.0,10.0,60,0.00,,,0.03,189.000000,,2013-08-26 23:52:00,
2013-08-26 17:21:00,65.0,48.0,-100.00,NE,37,3.0,11.0,54,0.00,,,0.03,275.000000,,2013-08-27 00:21:00,
2013-08-26 17:32:00,65.0,48.0,-100.00,NE,37,3.0,11.0,54,0.00,,,0.03,275.000000,,2013-08-27 00:32:00,
2013-08-26 17:42:00,65.0,48.0,-100.00,NE,37,3.0,11.0,54,0.00,,,0.03,275.000000,,2013-08-27 00:42:00,
2013-08-26 17:52:00,65.0,48.0,-100.00,NE,37,3.0,11.0,54,0.00,,,0.03,275.000000,,2013-08-27 00:52:00,
2013-08-26 18:21:00,61.0,46.0,-100.00,North,4,1.0,9.0,57,0.00,,,0.03,211.000000,,2013-08-27 01:21:00,
2013-08-26 18:32:00,61.0,46.0,-100.00,North,4,1.0,9.0,57,0.00,,,0.03,211.000000,,2013-08-27 01:32:00,
2013-08-26 18:42:00,61.0,46.0,-100.00,North,4,1.0,9.0,57,0.00,,,0.03,211.000000,,2013-08-27 01:42:00,
2013-08-26 18:52:00,61.0,46.0,-100.00,North,4,1.0,9.0,57,0.00,,,0.03,211.000000,,2013-08-27 01:52:00,
2013-08-26 19:21:00,56.0,47.0,-100.00,WSW,244,1.0,7.0,71,0.00,,,0.03,33.000000,,2013-08-27 02:21:00,
2013-08-26 19:32:00,56.0,47.0,-100.00,WSW,244,1.0,7.0,71,0.00,,,0.03,33.000000,,2013-08-27 02:32:00,
2013-08-26 19:42:00,56.0,47.0,-100.00,WSW,244,1.0,7.0,71,0.00,,,0.03,33.000000,,2013-08-27 02:42:00,
2013-08-26 19:52:00,56.0,47.0,-100.00,WSW,244,1.0,7.0,71,0.00,,,0.03,33.000000,,2013-08-27 02:52:00,
2013-08-26 19:53:00,53.0,48.0,-100.00,ENE,59,2.0,9.0,82,0.00,,,0.02,6.000000,,2013-08-27 02:53:00,
2013-08-26 20:22:00,53.0,48.0,-100.00,ENE,59,2.0,9.0,82,0.00,,,0.02,6.000000,,2013-08-27 03:22:00,
2013-08-26 20:36:00,53.0,48.0,-100.00,ENE,59,2.0,9.0,82,0.00,,,0.02,6.000000,,2013-08-27 03:36:00,
2013-08-26 20:44:00,53.0,48.0,-100.00,ENE,59,2.0,9.0,82,0.00,,,0.02,6.000000,,2013-08-27 03:44:00,
2013-08-26 20:53:00,54.0,49.0,-100.00,NE,52,2.0,8.0,82,0.00,,,0.02,0.000000,,2013-08-27 03:53:00,
2013-08-26 21:29:00,54.0,49.0,-100.00,NE,52,2.0,8.0,82,0.00,,,0.02,0.000000,,2013-08-27 04:29:00,
2013-08-26 21:38:00,54.0,49.0,-100.00,NE,52,2.0,8.0,82,0.00,,,0.02,0.000000,,2013-08-27 04:38:00,
2013-08-26 21:46:00,54.0,49.0,-100.00,NE,52,2.0,8.0,82,0.00,,,0.02,0.000000,,2013-08-27 04:46:00,
2013-08-26 22:23:00,51.0,48.0,-100.00,NNE,24,1.0,3.0,88,0.00,,,0.02,0.000000,,2013-08-27 05:23:00,
2013-08-26 22:34:00,51.0,48.0,-100.00,NNE,24,1.0,3.0,88,0.00,,,0.02,0.000000,,2013-08-27 05:34:00,
2013-08-26 22:43:00,51.0,48.0,-100.00,NNE,24,1.0,3.0,88,0.00,,,0.02,0.000000,,2013-08-27 05:43:00,
2013-08-26 22:52:00,51.0,48.0,-100.00,NNE,24,1.0,3.0,88,0.00,,,0.02,0.000000,,2013-08-27 05:52:00,
2013-08-26 23:21:00,52.0,49.0,-100.00,SSW,197,1.0,2.0,89,0.00,,,0.01,0.000000,,2013-08-27 06:21:00,
2013-08-26 23:32:00,52.0,49.0,-100.00,SSW,197,1.0,2.0,89,0.00,,,0.01,0.000000,,2013-08-27 06:32:00,
2013-08-26 23:42:00,52.0,49.0,-100.00,SSW,197,1.0,2.0,89,0.00,,,0.01,0.000000,,2013-08-27 06:42:00,
2013-08-26 23:52:00,52.0,49.0,-100.00,SSW,197,1.0,2.0,89,0.00,,,0.01,0.000000,,2013-08-27 06:52:00,